createdAt,value
2019-04-06T00:03:40.194Z,11.60
2019-04-06T00:08:45.371Z,5.30
2019-04-06T00:13:50.615Z,8.17
2019-04-06T00:18:55.925Z,12.07
2019-04-06T00:24:01.324Z,7.20
2019-04-06T00:29:06.928Z,5.63
2019-04-06T00:34:12.249Z,8.33
2019-04-06T00:39:17.486Z,8.07
2019-04-06T00:44:23.111Z,8.00
2019-04-06T00:49:28.370Z,8.73
2019-04-06T00:54:33.529Z,8.37
2019-04-06T00:59:38.910Z,9.03
2019-04-06T01:04:44.318Z,5.77
2019-04-06T01:09:49.657Z,8.30
2019-04-06T01:14:54.983Z,7.00
2019-04-06T01:20:00.289Z,9.10
2019-04-06T01:25:06.104Z,6.67
2019-04-06T01:30:11.899Z,6.73
2019-04-06T01:35:17.094Z,6.03
2019-04-06T01:40:23.340Z,8.00
2019-04-06T01:45:28.735Z,7.57
2019-04-06T01:50:33.934Z,6.90
2019-04-06T01:55:39.204Z,4.97
2019-04-06T02:00:57.844Z,6.63
2019-04-06T02:06:03.826Z,6.97
2019-04-06T02:11:09.150Z,6.87
2019-04-06T02:16:14.441Z,10.20
2019-04-06T02:21:19.718Z,5.67
2019-04-06T02:26:30.725Z,6.93
2019-04-06T02:31:44.809Z,6.60
2019-04-06T02:36:59.231Z,4.37
2019-04-06T02:42:09.146Z,3.90
2019-04-06T02:47:14.359Z,5.17
2019-04-06T02:52:19.545Z,4.83
2019-04-06T02:57:24.772Z,4.53
2019-04-06T03:02:30.040Z,2.17
2019-04-06T03:07:35.642Z,1.92
2019-04-06T03:12:40.993Z,2.27
2019-04-06T03:17:46.144Z,4.50
2019-04-06T03:22:51.379Z,3.67
2019-04-06T03:27:56.526Z,3.43
2019-04-06T03:33:01.840Z,1.60
2019-04-06T03:38:07.218Z,3.90
2019-04-06T03:43:12.623Z,2.47
2019-04-06T03:48:17.855Z,2.83
2019-04-06T03:53:23.495Z,2.07
2019-04-06T03:58:28.714Z,3.20
2019-04-06T04:03:34.067Z,4.23
2019-04-06T04:08:39.344Z,3.50
2019-04-06T04:13:44.616Z,3.43
2019-04-06T04:18:49.962Z,2.03
2019-04-06T04:23:55.236Z,1.67
2019-04-06T04:29:00.443Z,0.93
2019-04-06T04:34:05.820Z,2.33
2019-04-06T04:39:11.124Z,3.27
2019-04-06T04:44:16.471Z,3.30
2019-04-06T04:49:21.785Z,4.13
2019-04-06T04:54:27.073Z,4.40
2019-04-06T04:59:32.406Z,4.65
2019-04-06T05:04:37.742Z,4.58
2019-04-06T05:09:42.992Z,7.20
2019-04-06T05:14:57.777Z,4.97
2019-04-06T05:20:03.192Z,4.23
2019-04-06T05:25:09.332Z,8.03
2019-04-06T05:30:15.497Z,6.17
2019-04-06T05:35:20.808Z,8.23
2019-04-06T05:40:26.116Z,8.13
2019-04-06T05:45:31.357Z,5.87
2019-04-06T05:50:36.627Z,5.17
2019-04-06T05:55:42.088Z,6.03
2019-04-06T06:00:47.352Z,4.93
2019-04-06T06:05:52.874Z,7.93
2019-04-06T06:10:58.583Z,6.03
2019-04-06T06:16:04.003Z,10.30
2019-04-06T06:21:09.261Z,6.80
2019-04-06T06:26:14.656Z,8.47
2019-04-06T06:31:20.172Z,11.88
2019-04-06T06:36:25.673Z,12.90
2019-04-06T06:41:31.034Z,8.63
2019-04-06T06:46:36.345Z,9.35
2019-04-06T06:51:41.752Z,8.30
2019-04-06T06:56:47.098Z,9.17
2019-04-06T07:01:52.517Z,7.43
2019-04-06T07:06:58.119Z,7.13
2019-04-06T07:12:03.451Z,6.27
2019-04-06T07:17:08.908Z,5.93
2019-04-06T07:22:14.171Z,5.97
2019-04-06T07:27:19.572Z,3.90
2019-04-06T07:32:26.019Z,3.20
2019-04-06T07:37:31.331Z,2.67
2019-04-06T07:42:36.931Z,4.03
2019-04-06T07:47:42.232Z,5.73
2019-04-06T07:52:49.852Z,7.50
2019-04-06T07:57:55.358Z,9.00
2019-04-06T08:03:05.332Z,6.60
2019-04-06T08:08:10.711Z,7.03
2019-04-06T08:13:16.267Z,7.37
2019-04-06T08:18:21.871Z,8.03
2019-04-06T08:23:27.350Z,5.45
2019-04-06T08:28:32.731Z,9.48
2019-04-06T08:33:38.186Z,7.47
2019-04-06T08:38:43.532Z,4.80
2019-04-06T08:43:48.772Z,5.07
2019-04-06T08:48:54.092Z,10.53
2019-04-06T08:53:59.587Z,6.13
2019-04-06T08:59:11.597Z,9.17
2019-04-06T09:04:12.592Z,7.00
2019-04-06T09:09:17.912Z,7.07
2019-04-06T09:14:25.353Z,10.33
2019-04-06T09:19:30.774Z,8.90
2019-04-06T09:24:36.225Z,6.73
2019-04-06T09:29:41.652Z,8.33
2019-04-06T09:34:47.131Z,8.37
2019-04-06T09:39:53.598Z,6.63
2019-04-06T09:45:06.149Z,7.22
2019-04-06T09:50:25.131Z,7.60
2019-04-06T09:55:40.786Z,7.92
2019-04-06T10:00:55.052Z,9.20
2019-04-06T10:06:09.132Z,8.33
2019-04-06T10:11:23.012Z,7.80
2019-04-06T10:16:37.072Z,11.40
2019-04-06T10:21:58.594Z,11.07
2019-04-06T10:27:12.032Z,13.27
2019-04-06T10:32:29.051Z,20.40
2019-04-06T10:37:43.012Z,25.83
2019-04-06T10:43:00.349Z,24.23
2019-04-06T10:48:12.827Z,26.33
2019-04-06T10:53:27.186Z,31.90
2019-04-06T10:58:45.740Z,27.40
2019-04-06T11:03:59.025Z,23.80
2019-04-06T11:09:15.293Z,22.80
2019-04-06T11:14:29.058Z,30.33
2019-04-06T11:19:46.126Z,26.93
2019-04-06T11:25:10.318Z,26.57
2019-04-06T11:30:22.466Z,31.50
2019-04-06T11:35:36.006Z,38.77
2019-04-06T11:40:50.671Z,47.20
2019-04-06T11:46:04.933Z,54.00
2019-04-06T11:51:25.737Z,56.50
2019-04-06T11:56:40.592Z,67.45
2019-04-06T12:02:04.893Z,54.40
2019-04-06T12:07:19.256Z,64.00
2019-04-06T12:12:43.471Z,71.20
2019-04-06T12:18:00.037Z,80.50
2019-04-06T12:23:14.105Z,68.57
2019-04-06T12:28:27.952Z,69.73
2019-04-06T12:33:49.411Z,66.80
2019-04-06T12:39:04.006Z,67.43
2019-04-06T12:44:19.864Z,73.43
2019-04-06T12:49:34.057Z,65.13
2019-04-06T12:54:50.927Z,64.80
2019-04-06T13:00:05.095Z,57.23
2019-04-06T13:05:19.911Z,59.27
2019-04-06T13:10:33.002Z,52.23
2019-04-06T13:15:46.998Z,55.30
2019-04-06T13:21:01.098Z,47.43
2019-04-06T13:26:15.127Z,43.27
2019-04-06T13:31:32.717Z,45.13
2019-04-06T13:36:45.732Z,49.70
2019-04-06T13:41:59.812Z,47.58
2019-04-06T13:47:24.053Z,55.67
2019-04-06T13:52:38.014Z,55.03
2019-04-06T13:57:48.437Z,50.67
2019-04-06T14:03:00.601Z,52.77
2019-04-06T14:08:14.337Z,41.13
2019-04-06T14:13:27.801Z,43.43
2019-04-06T14:18:42.019Z,45.10
2019-04-06T14:24:00.013Z,44.57
2019-04-06T14:29:14.032Z,49.87
2019-04-06T14:34:30.336Z,49.20
2019-04-06T14:39:49.978Z,52.80
2019-04-06T14:45:04.827Z,51.27
2019-04-06T14:50:19.085Z,51.90
2019-04-06T14:55:39.242Z,57.80
2019-04-06T15:00:54.010Z,60.13
2019-04-06T15:06:14.853Z,57.90
2019-04-06T15:11:29.209Z,57.87
2019-04-06T15:16:42.390Z,59.67
2019-04-06T15:21:59.746Z,71.80
2019-04-06T15:27:13.423Z,72.60
2019-04-06T15:32:27.014Z,77.43
2019-04-06T15:37:42.400Z,75.20
2019-04-06T15:42:57.252Z,76.93
2019-04-06T15:48:13.325Z,70.17
2019-04-06T15:53:30.292Z,72.83
2019-04-06T15:58:41.102Z,72.17
2019-04-06T16:03:55.170Z,67.77
2019-04-06T16:09:15.094Z,64.87
2019-04-06T16:14:31.974Z,64.57
2019-04-06T16:19:45.465Z,68.63
2019-04-06T16:24:59.558Z,63.33
2019-04-06T16:30:16.341Z,66.77
2019-04-06T16:35:30.031Z,62.10
2019-04-06T16:40:44.014Z,64.33
2019-04-06T16:46:00.653Z,64.63
2019-04-06T16:51:16.694Z,68.00
2019-04-06T16:56:28.815Z,68.90
2019-04-06T17:01:43.772Z,70.25
2019-04-06T17:07:00.718Z,77.77
2019-04-06T17:12:15.934Z,79.07
2019-04-06T17:17:29.818Z,80.03
2019-04-06T17:22:53.105Z,84.00
2019-04-06T17:28:05.534Z,83.63
2019-04-06T17:33:19.052Z,86.03
2019-04-06T17:38:30.560Z,81.17
2019-04-06T17:43:47.490Z,80.00
2019-04-06T17:49:10.174Z,85.77
2019-04-06T17:54:24.390Z,87.07
2019-04-06T17:59:45.237Z,91.05
2019-04-06T18:05:05.932Z,79.42
2019-04-06T18:10:18.535Z,84.70
2019-04-06T18:15:24.407Z,84.37
2019-04-06T18:20:30.986Z,95.37
2019-04-06T18:25:37.275Z,91.92
2019-04-06T18:30:43.087Z,95.17
2019-04-06T18:35:51.646Z,93.33
2019-04-06T18:40:57.039Z,83.90
2019-04-06T18:46:02.577Z,84.23
2019-04-06T18:51:07.883Z,92.57
2019-04-06T18:56:13.523Z,81.13
2019-04-06T19:01:19.314Z,85.30
2019-04-06T19:06:25.714Z,79.90
2019-04-06T19:11:31.312Z,76.70
2019-04-06T19:16:36.735Z,74.75
2019-04-06T19:21:42.568Z,74.70
2019-04-06T19:26:47.874Z,72.10
2019-04-06T19:31:54.451Z,74.27
2019-04-06T19:37:00.206Z,73.27
2019-04-06T19:42:06.434Z,67.67
2019-04-06T19:47:12.059Z,67.07
2019-04-06T19:52:17.562Z,69.93
2019-04-06T19:57:22.904Z,72.80
2019-04-06T20:02:28.759Z,69.40
2019-04-06T20:07:34.323Z,72.30
2019-04-06T20:12:40.024Z,89.33
2019-04-06T20:17:45.322Z,82.73
2019-04-06T20:22:50.622Z,73.40
2019-04-06T20:27:56.573Z,86.37
2019-04-06T20:33:02.051Z,74.73
2019-04-06T20:38:08.843Z,85.33
2019-04-06T20:43:14.521Z,71.80
2019-04-06T20:48:20.433Z,69.17
2019-04-06T20:53:25.902Z,71.73
2019-04-06T20:58:31.365Z,74.50
2019-04-06T21:03:36.602Z,81.77
2019-04-06T21:08:42.018Z,84.70
2019-04-06T21:13:47.307Z,90.70
2019-04-06T21:18:52.753Z,90.13
2019-04-06T21:23:58.218Z,150.20
2019-04-06T21:29:03.726Z,92.67
2019-04-06T21:34:12.685Z,66.93
2019-04-06T21:39:16.406Z,72.37
2019-04-06T21:44:23.020Z,60.13
2019-04-06T21:49:28.242Z,45.27
2019-04-06T21:54:34.414Z,43.53
2019-04-06T21:59:41.827Z,39.98
2019-04-06T22:04:47.202Z,27.33
2019-04-06T22:09:52.678Z,22.13
2019-04-06T22:14:58.118Z,22.80
2019-04-06T22:20:04.070Z,19.23
2019-04-06T22:25:09.526Z,18.20
2019-04-06T22:30:18.978Z,17.03
2019-04-06T22:35:23.990Z,19.37
2019-04-06T22:40:29.461Z,16.47
2019-04-06T22:45:35.951Z,18.42
2019-04-06T22:50:42.267Z,20.57
2019-04-06T22:55:47.482Z,22.60
2019-04-06T23:00:57.342Z,16.97
2019-04-06T23:06:06.321Z,17.50
2019-04-06T23:11:11.732Z,16.53
2019-04-06T23:16:17.076Z,15.03
2019-04-06T23:21:22.890Z,14.77
2019-04-06T23:26:28.150Z,17.70
2019-04-06T23:31:33.618Z,17.10
2019-04-06T23:36:39.450Z,16.23
2019-04-06T23:41:45.026Z,15.87
2019-04-06T23:46:50.991Z,15.90
2019-04-06T23:51:56.439Z,15.73
2019-04-06T23:57:02.522Z,15.23
